sensor_id;sensor_type;location;lat;lon;timestamp;pressure;altitude;pressure_sealevel;temperature;humidity
40245;BME280;25963;42.694;23.600;2023-11-19T00:01:33;95087.91;;;3.74;100.00
40245;BME280;25963;42.694;23.600;2023-11-19T00:03:59;95086.88;;;3.60;100.00
40245;BME280;25963;42.694;23.600;2023-11-19T00:06:24;95081.38;;;3.55;100.00
40245;BME280;25963;42.694;23.600;2023-11-19T00:08:51;95091.44;;;3.58;100.00
40245;BME280;25963;42.694;23.600;2023-11-19T00:11:19;95114.63;;;3.76;100.00
40245;BME280;25963;42.694;23.600;2023-11-19T00:13:44;95108.31;;;3.71;100.00
40245;BME280;25963;42.694;23.600;2023-11-19T00:16:10;95116.72;;;3.81;100.00
40245;BME280;25963;42.694;23.600;2023-11-19T00:18:35;95103.78;;;3.64;100.00
40245;BME280;25963;42.694;23.600;2023-11-19T00:21:05;95119.03;;;3.76;100.00
40245;BME280;25963;42.694;23.600;2023-11-19T00:23:30;95105.56;;;3.87;100.00
40245;BME280;25963;42.694;23.600;2023-11-19T00:25:55;95115.47;;;3.92;100.00
40245;BME280;25963;42.694;23.600;2023-11-19T00:28:21;95107.94;;;3.74;100.00
40245;BME280;25963;42.694;23.600;2023-11-19T00:30:46;95107.28;;;3.95;100.00
40245;BME280;25963;42.694;23.600;2023-11-19T00:33:12;95123.66;;;4.03;100.00
40245;BME280;25963;42.694;23.600;2023-11-19T00:35:37;95112.88;;;4.06;100.00
40245;BME280;25963;42.694;23.600;2023-11-19T00:38:03;95104.47;;;3.81;100.00
40245;BME280;25963;42.694;23.600;2023-11-19T00:40:29;95116.16;;;3.85;100.00
40245;BME280;25963;42.694;23.600;2023-11-19T00:42:54;95121.28;;;3.79;100.00
40245;BME280;25963;42.694;23.600;2023-11-19T00:45:20;95130.06;;;3.86;100.00
40245;BME280;25963;42.694;23.600;2023-11-19T00:47:45;95098.72;;;3.48;100.00
40245;BME280;25963;42.694;23.600;2023-11-19T00:50:10;95136.59;;;3.59;100.00
40245;BME280;25963;42.694;23.600;2023-11-19T00:52:37;95130.13;;;3.55;100.00
40245;BME280;25963;42.694;23.600;2023-11-19T00:55:03;95111.69;;;3.56;100.00
40245;BME280;25963;42.694;23.600;2023-11-19T00:57:32;95128.97;;;3.57;100.00
40245;BME280;25963;42.694;23.600;2023-11-19T00:59:59;95127.63;;;3.61;100.00
40245;BME280;25963;42.694;23.600;2023-11-19T01:02:24;95138.34;;;3.66;100.00
40245;BME280;25963;42.694;23.600;2023-11-19T01:04:50;95135.97;;;3.57;100.00
40245;BME280;25963;42.694;23.600;2023-11-19T01:07:16;95133.38;;;3.57;100.00
40245;BME280;25963;42.694;23.600;2023-11-19T01:09:42;95114.47;;;3.78;100.00
40245;BME280;25963;42.694;23.600;2023-11-19T01:12:08;95132.91;;;3.53;100.00
40245;BME280;25963;42.694;23.600;2023-11-19T01:14:34;95141.69;;;3.52;100.00
40245;BME280;25963;42.694;23.600;2023-11-19T01:17:00;95140.03;;;3.59;100.00
40245;BME280;25963;42.694;23.600;2023-11-19T01:19:26;95137.78;;;3.56;100.00
40245;BME280;25963;42.694;23.600;2023-11-19T01:21:53;95137.84;;;3.17;100.00
40245;BME280;25963;42.694;23.600;2023-11-19T01:24:19;95120.56;;;2.93;100.00
40245;BME280;25963;42.694;23.600;2023-11-19T01:26:45;95135.72;;;3.20;100.00
40245;BME280;25963;42.694;23.600;2023-11-19T01:29:13;95131.13;;;3.23;100.00
40245;BME280;25963;42.694;23.600;2023-11-19T01:31:42;95129.88;;;3.18;100.00
40245;BME280;25963;42.694;23.600;2023-11-19T01:34:08;95110.47;;;3.21;100.00
40245;BME280;25963;42.694;23.600;2023-11-19T01:36:34;95118.41;;;3.28;100.00
40245;BME280;25963;42.694;23.600;2023-11-19T01:39:00;95122.19;;;3.48;100.00
40245;BME280;25963;42.694;23.600;2023-11-19T01:41:25;95145.25;;;3.59;100.00
40245;BME280;25963;42.694;23.600;2023-11-19T01:43:51;95138.28;;;3.52;100.00
40245;BME280;25963;42.694;23.600;2023-11-19T01:46:16;95135.03;;;3.50;100.00
40245;BME280;25963;42.694;23.600;2023-11-19T01:48:45;95117.56;;;3.35;100.00
40245;BME280;25963;42.694;23.600;2023-11-19T01:51:12;95116.56;;;3.36;100.00
40245;BME280;25963;42.694;23.600;2023-11-19T01:53:42;95127.22;;;3.50;100.00
40245;BME280;25963;42.694;23.600;2023-11-19T01:56:09;95142.06;;;3.49;100.00
40245;BME280;25963;42.694;23.600;2023-11-19T01:58:37;95134.13;;;3.42;100.00
40245;BME280;25963;42.694;23.600;2023-11-19T02:01:05;95153.97;;;3.43;100.00
40245;BME280;25963;42.694;23.600;2023-11-19T02:03:31;95129.66;;;3.28;100.00
40245;BME280;25963;42.694;23.600;2023-11-19T02:05:58;95123.28;;;3.31;100.00
40245;BME280;25963;42.694;23.600;2023-11-19T02:08:24;95134.13;;;3.42;100.00
40245;BME280;25963;42.694;23.600;2023-11-19T02:10:51;95124.88;;;3.32;100.00
40245;BME280;25963;42.694;23.600;2023-11-19T02:13:17;95112.53;;;3.26;100.00
40245;BME280;25963;42.694;23.600;2023-11-19T02:15:43;95110.28;;;3.23;100.00
40245;BME280;25963;42.694;23.600;2023-11-19T02:18:22;95114.03;;;3.20;100.00
40245;BME280;25963;42.694;23.600;2023-11-19T02:20:49;95115.69;;;2.90;100.00
40245;BME280;25963;42.694;23.600;2023-11-19T02:23:15;95124.91;;;3.01;100.00
40245;BME280;25963;42.694;23.600;2023-11-19T02:25:41;95133.44;;;2.94;100.00
40245;BME280;25963;42.694;23.600;2023-11-19T02:28:08;95138.44;;;2.96;100.00
40245;BME280;25963;42.694;23.600;2023-11-19T02:30:35;95141.00;;;3.12;100.00
40245;BME280;25963;42.694;23.600;2023-11-19T02:33:01;95144.59;;;3.11;100.00
40245;BME280;25963;42.694;23.600;2023-11-19T02:35:31;95140.34;;;3.10;100.00
40245;BME280;25963;42.694;23.600;2023-11-19T02:37:57;95142.94;;;3.10;100.00
40245;BME280;25963;42.694;23.600;2023-11-19T02:40:24;95153.25;;;3.04;100.00
40245;BME280;25963;42.694;23.600;2023-11-19T02:42:51;95093.75;;;2.84;100.00
40245;BME280;25963;42.694;23.600;2023-11-19T02:45:16;95133.97;;;3.13;100.00
40245;BME280;25963;42.694;23.600;2023-11-19T02:47:43;95122.31;;;3.01;100.00
40245;BME280;25963;42.694;23.600;2023-11-19T02:50:11;95146.75;;;3.00;100.00
40245;BME280;25963;42.694;23.600;2023-11-19T02:52:41;95161.03;;;3.12;100.00
40245;BME280;25963;42.694;23.600;2023-11-19T02:55:06;95140.09;;;2.97;100.00
40245;BME280;25963;42.694;23.600;2023-11-19T02:57:35;95149.84;;;3.03;100.00
40245;BME280;25963;42.694;23.600;2023-11-19T03:00:01;95156.22;;;2.92;100.00
40245;BME280;25963;42.694;23.600;2023-11-19T03:02:29;95153.16;;;2.89;100.00
40245;BME280;25963;42.694;23.600;2023-11-19T03:04:59;95134.22;;;2.95;100.00
40245;BME280;25963;42.694;23.600;2023-11-19T03:07:25;95144.25;;;3.14;100.00
40245;BME280;25963;42.694;23.600;2023-11-19T03:09:50;95161.53;;;3.07;100.00
40245;BME280;25963;42.694;23.600;2023-11-19T03:12:16;95168.41;;;3.00;100.00
40245;BME280;25963;42.694;23.600;2023-11-19T03:14:41;95158.00;;;3.00;100.00
40245;BME280;25963;42.694;23.600;2023-11-19T03:17:07;95169.00;;;3.10;100.00
40245;BME280;25963;42.694;23.600;2023-11-19T03:19:34;95166.50;;;2.94;100.00
40245;BME280;25963;42.694;23.600;2023-11-19T03:22:01;95181.09;;;3.03;100.00
40245;BME280;25963;42.694;23.600;2023-11-19T03:24:27;95182.16;;;3.17;100.00
40245;BME280;25963;42.694;23.600;2023-11-19T03:26:52;95169.34;;;3.07;100.00
40245;BME280;25963;42.694;23.600;2023-11-19T03:29:18;95176.78;;;2.87;100.00
40245;BME280;25963;42.694;23.600;2023-11-19T03:31:43;95182.03;;;3.10;100.00
40245;BME280;25963;42.694;23.600;2023-11-19T03:34:10;95183.38;;;3.06;100.00
40245;BME280;25963;42.694;23.600;2023-11-19T03:36:35;95182.00;;;3.18;100.00
40245;BME280;25963;42.694;23.600;2023-11-19T03:39:00;95179.06;;;3.22;100.00
40245;BME280;25963;42.694;23.600;2023-11-19T03:41:26;95166.13;;;3.05;100.00
40245;BME280;25963;42.694;23.600;2023-11-19T03:43:51;95192.13;;;3.13;100.00
40245;BME280;25963;42.694;23.600;2023-11-19T03:46:20;95187.22;;;3.18;100.00
40245;BME280;25963;42.694;23.600;2023-11-19T03:48:46;95183.19;;;3.08;100.00
40245;BME280;25963;42.694;23.600;2023-11-19T03:51:12;95163.25;;;2.92;100.00
40245;BME280;25963;42.694;23.600;2023-11-19T03:53:44;95198.00;;;3.15;100.00
40245;BME280;25963;42.694;23.600;2023-11-19T03:56:10;95193.28;;;3.11;100.00
40245;BME280;25963;42.694;23.600;2023-11-19T03:58:37;95200.16;;;3.04;100.00
40245;BME280;25963;42.694;23.600;2023-11-19T04:01:04;95178.75;;;2.85;100.00
40245;BME280;25963;42.694;23.600;2023-11-19T04:03:30;95196.03;;;3.17;100.00
40245;BME280;25963;42.694;23.600;2023-11-19T04:05:55;95173.97;;;2.97;100.00
40245;BME280;25963;42.694;23.600;2023-11-19T04:08:21;95210.03;;;3.16;100.00
40245;BME280;25963;42.694;23.600;2023-11-19T04:10:47;95181.13;;;2.95;100.00
40245;BME280;25963;42.694;23.600;2023-11-19T04:13:13;95205.25;;;3.28;100.00
40245;BME280;25963;42.694;23.600;2023-11-19T04:15:38;95211.16;;;3.22;100.00
40245;BME280;25963;42.694;23.600;2023-11-19T04:18:04;95189.41;;;3.07;100.00
40245;BME280;25963;42.694;23.600;2023-11-19T04:20:29;95199.22;;;3.28;100.00
40245;BME280;25963;42.694;23.600;2023-11-19T04:22:57;95189.59;;;3.28;100.00
40245;BME280;25963;42.694;23.600;2023-11-19T04:25:22;95217.72;;;3.41;100.00
40245;BME280;25963;42.694;23.600;2023-11-19T04:27:49;95208.84;;;3.27;100.00
40245;BME280;25963;42.694;23.600;2023-11-19T04:30:14;95190.63;;;3.19;100.00
40245;BME280;25963;42.694;23.600;2023-11-19T04:32:40;95174.31;;;2.94;100.00
40245;BME280;25963;42.694;23.600;2023-11-19T04:35:06;95198.22;;;3.06;100.00
40245;BME280;25963;42.694;23.600;2023-11-19T04:37:32;95211.63;;;3.26;100.00
40245;BME280;25963;42.694;23.600;2023-11-19T04:39:57;95209.84;;;3.26;100.00
40245;BME280;25963;42.694;23.600;2023-11-19T04:42:25;95212.50;;;3.10;100.00
40245;BME280;25963;42.694;23.600;2023-11-19T04:44:50;95245.16;;;3.29;100.00
40245;BME280;25963;42.694;23.600;2023-11-19T04:47:16;95240.09;;;3.35;100.00
40245;BME280;25963;42.694;23.600;2023-11-19T04:49:41;95236.56;;;3.20;100.00
40245;BME280;25963;42.694;23.600;2023-11-19T04:52:10;95223.72;;;3.18;100.00
40245;BME280;25963;42.694;23.600;2023-11-19T04:54:43;95232.53;;;3.17;100.00
40245;BME280;25963;42.694;23.600;2023-11-19T04:57:09;95240.84;;;3.13;100.00
40245;BME280;25963;42.694;23.600;2023-11-19T04:59:36;95227.34;;;3.09;100.00
40245;BME280;25963;42.694;23.600;2023-11-19T05:02:02;95240.84;;;3.13;100.00
40245;BME280;25963;42.694;23.600;2023-11-19T05:04:27;95212.25;;;2.96;100.00
40245;BME280;25963;42.694;23.600;2023-11-19T05:06:53;95246.88;;;3.13;100.00
40245;BME280;25963;42.694;23.600;2023-11-19T05:09:18;95252.19;;;3.28;100.00
40245;BME280;25963;42.694;23.600;2023-11-19T05:11:44;95255.66;;;3.20;100.00
40245;BME280;25963;42.694;23.600;2023-11-19T05:14:09;95258.25;;;3.20;100.00
40245;BME280;25963;42.694;23.600;2023-11-19T05:16:35;95261.88;;;3.11;100.00
40245;BME280;25963;42.694;23.600;2023-11-19T05:19:00;95255.81;;;3.19;100.00
40245;BME280;25963;42.694;23.600;2023-11-19T05:21:26;95230.31;;;2.90;100.00
40245;BME280;25963;42.694;23.600;2023-11-19T05:23:51;95241.38;;;3.08;100.00
40245;BME280;25963;42.694;23.600;2023-11-19T05:26:18;95232.56;;;3.01;100.00
40245;BME280;25963;42.694;23.600;2023-11-19T05:28:45;95226.34;;;3.10;100.00
40245;BME280;25963;42.694;23.600;2023-11-19T05:31:10;95231.22;;;3.13;100.00
40245;BME280;25963;42.694;23.600;2023-11-19T05:33:36;95251.03;;;3.31;100.00
40245;BME280;25963;42.694;23.600;2023-11-19T05:36:02;95237.41;;;3.20;100.00
40245;BME280;25963;42.694;23.600;2023-11-19T05:38:29;95256.16;;;3.16;100.00
40245;BME280;25963;42.694;23.600;2023-11-19T05:40:54;95262.91;;;3.33;100.00
40245;BME280;25963;42.694;23.600;2023-11-19T05:43:20;95254.19;;;3.18;100.00
40245;BME280;25963;42.694;23.600;2023-11-19T05:45:46;95250.38;;;3.29;100.00
40245;BME280;25963;42.694;23.600;2023-11-19T05:48:11;95251.81;;;3.00;100.00
40245;BME280;25963;42.694;23.600;2023-11-19T05:50:37;95258.28;;;3.12;100.00
40245;BME280;25963;42.694;23.600;2023-11-19T05:53:02;95256.06;;;2.93;100.00
40245;BME280;25963;42.694;23.600;2023-11-19T05:55:30;95263.38;;;3.06;100.00
40245;BME280;25963;42.694;23.600;2023-11-19T05:57:56;95260.69;;;3.14;100.00
40245;BME280;25963;42.694;23.600;2023-11-19T06:00:21;95261.53;;;3.14;100.00
40245;BME280;25963;42.694;23.600;2023-11-19T06:02:47;95266.31;;;3.03;100.00
40245;BME280;25963;42.694;23.600;2023-11-19T06:05:12;95280.25;;;3.18;100.00
40245;BME280;25963;42.694;23.600;2023-11-19T06:07:38;95288.56;;;3.13;100.00
40245;BME280;25963;42.694;23.600;2023-11-19T06:10:04;95292.50;;;3.01;100.00
40245;BME280;25963;42.694;23.600;2023-11-19T06:12:33;95275.91;;;3.02;100.00
40245;BME280;25963;42.694;23.600;2023-11-19T06:14:59;95269.03;;;3.09;100.00
40245;BME280;25963;42.694;23.600;2023-11-19T06:17:25;95281.41;;;3.15;100.00
40245;BME280;25963;42.694;23.600;2023-11-19T06:19:50;95281.06;;;3.18;100.00
40245;BME280;25963;42.694;23.600;2023-11-19T06:22:16;95289.34;;;3.22;100.00
40245;BME280;25963;42.694;23.600;2023-11-19T06:24:44;95268.34;;;3.24;100.00
40245;BME280;25963;42.694;23.600;2023-11-19T06:27:13;95273.84;;;3.29;100.00
40245;BME280;25963;42.694;23.600;2023-11-19T06:30:01;95278.69;;;3.40;100.00
40245;BME280;25963;42.694;23.600;2023-11-19T06:32:26;95284.38;;;3.43;98.79
40245;BME280;25963;42.694;23.600;2023-11-19T06:34:53;95295.94;;;3.49;99.05
40245;BME280;25963;42.694;23.600;2023-11-19T06:37:22;95292.94;;;3.60;98.94
40245;BME280;25963;42.694;23.600;2023-11-19T06:39:48;95272.50;;;3.41;98.91
40245;BME280;25963;42.694;23.600;2023-11-19T06:42:13;95271.88;;;3.39;98.48
40245;BME280;25963;42.694;23.600;2023-11-19T06:44:39;95289.41;;;3.53;99.15
40245;BME280;25963;42.694;23.600;2023-11-19T06:47:04;95284.75;;;3.72;98.73
40245;BME280;25963;42.694;23.600;2023-11-19T06:49:30;95287.16;;;3.50;98.18
40245;BME280;25963;42.694;23.600;2023-11-19T06:51:55;95281.94;;;3.42;99.66
40245;BME280;25963;42.694;23.600;2023-11-19T06:54:21;95287.22;;;3.65;98.34
40245;BME280;25963;42.694;23.600;2023-11-19T06:56:48;95293.84;;;3.76;98.53
40245;BME280;25963;42.694;23.600;2023-11-19T06:59:13;95301.88;;;3.66;97.47
40245;BME280;25963;42.694;23.600;2023-11-19T07:01:39;95284.53;;;3.50;97.53
40245;BME280;25963;42.694;23.600;2023-11-19T07:04:05;95314.47;;;3.62;97.51
40245;BME280;25963;42.694;23.600;2023-11-19T07:06:35;95298.75;;;3.71;96.70
40245;BME280;25963;42.694;23.600;2023-11-19T07:09:01;95315.53;;;3.76;96.42
40245;BME280;25963;42.694;23.600;2023-11-19T07:11:38;95320.94;;;3.98;94.80
40245;BME280;25963;42.694;23.600;2023-11-19T07:14:05;95304.66;;;3.96;94.89
40245;BME280;25963;42.694;23.600;2023-11-19T07:16:32;95316.25;;;3.93;94.19
40245;BME280;25963;42.694;23.600;2023-11-19T07:19:00;95321.47;;;3.93;93.71
40245;BME280;25963;42.694;23.600;2023-11-19T07:21:25;95345.34;;;3.82;92.68
40245;BME280;25963;42.694;23.600;2023-11-19T07:23:52;95340.75;;;3.92;93.07
40245;BME280;25963;42.694;23.600;2023-11-19T07:26:18;95342.41;;;4.16;94.10
40245;BME280;25963;42.694;23.600;2023-11-19T07:28:44;95343.78;;;4.04;94.44
40245;BME280;25963;42.694;23.600;2023-11-19T07:31:10;95343.47;;;3.99;92.61
40245;BME280;25963;42.694;23.600;2023-11-19T07:33:36;95349.81;;;4.04;92.34
40245;BME280;25963;42.694;23.600;2023-11-19T07:36:01;95343.59;;;3.74;91.86
40245;BME280;25963;42.694;23.600;2023-11-19T07:38:27;95340.78;;;3.84;92.66
40245;BME280;25963;42.694;23.600;2023-11-19T07:40:52;95346.03;;;3.76;93.13
40245;BME280;25963;42.694;23.600;2023-11-19T07:43:18;95356.25;;;3.85;93.94
40245;BME280;25963;42.694;23.600;2023-11-19T07:45:43;95347.25;;;3.57;93.20
40245;BME280;25963;42.694;23.600;2023-11-19T07:48:10;95358.50;;;3.57;93.95
40245;BME280;25963;42.694;23.600;2023-11-19T07:50:38;95369.78;;;3.89;94.44
40245;BME280;25963;42.694;23.600;2023-11-19T07:53:03;95364.50;;;3.97;94.26
40245;BME280;25963;42.694;23.600;2023-11-19T07:55:29;95369.44;;;3.53;92.43
40245;BME280;25963;42.694;23.600;2023-11-19T07:57:55;95360.75;;;3.69;93.71
40245;BME280;25963;42.694;23.600;2023-11-19T08:00:21;95367.34;;;3.48;93.40
40245;BME280;25963;42.694;23.600;2023-11-19T08:02:46;95346.84;;;3.37;92.96
40245;BME280;25963;42.694;23.600;2023-11-19T08:05:12;95359.78;;;3.61;93.78
40245;BME280;25963;42.694;23.600;2023-11-19T08:07:37;95367.59;;;3.61;92.76
40245;BME280;25963;42.694;23.600;2023-11-19T08:10:04;95360.78;;;3.52;93.39
40245;BME280;25963;42.694;23.600;2023-11-19T08:12:30;95339.00;;;3.45;93.27
40245;BME280;25963;42.694;23.600;2023-11-19T08:14:56;95379.50;;;3.64;93.25
40245;BME280;25963;42.694;23.600;2023-11-19T08:17:23;95367.59;;;3.70;94.20
40245;BME280;25963;42.694;23.600;2023-11-19T08:19:49;95363.34;;;3.69;94.38
40245;BME280;25963;42.694;23.600;2023-11-19T08:22:14;95382.84;;;3.89;93.30
40245;BME280;25963;42.694;23.600;2023-11-19T08:24:42;95383.19;;;3.86;92.69
40245;BME280;25963;42.694;23.600;2023-11-19T08:27:07;95368.94;;;3.97;92.69
40245;BME280;25963;42.694;23.600;2023-11-19T08:29:33;95370.03;;;4.02;92.55
40245;BME280;25963;42.694;23.600;2023-11-19T08:32:00;95361.44;;;3.62;90.47
40245;BME280;25963;42.694;23.600;2023-11-19T08:34:27;95370.59;;;3.89;91.22
40245;BME280;25963;42.694;23.600;2023-11-19T08:36:52;95370.50;;;3.75;91.77
40245;BME280;25963;42.694;23.600;2023-11-19T08:39:19;95382.97;;;3.96;90.46
40245;BME280;25963;42.694;23.600;2023-11-19T08:41:44;95375.25;;;4.02;91.81
40245;BME280;25963;42.694;23.600;2023-11-19T08:44:10;95402.94;;;4.11;91.98
40245;BME280;25963;42.694;23.600;2023-11-19T08:46:35;95375.84;;;4.12;89.84
40245;BME280;25963;42.694;23.600;2023-11-19T08:49:01;95387.72;;;4.23;90.15
40245;BME280;25963;42.694;23.600;2023-11-19T08:51:26;95394.16;;;4.35;88.46
40245;BME280;25963;42.694;23.600;2023-11-19T08:53:53;95377.09;;;4.25;87.77
40245;BME280;25963;42.694;23.600;2023-11-19T08:56:18;95386.50;;;4.57;87.61
40245;BME280;25963;42.694;23.600;2023-11-19T08:58:44;95394.56;;;4.47;86.18
40245;BME280;25963;42.694;23.600;2023-11-19T09:01:09;95396.84;;;4.73;84.82
40245;BME280;25963;42.694;23.600;2023-11-19T09:03:35;95391.72;;;4.80;87.13
40245;BME280;25963;42.694;23.600;2023-11-19T09:06:02;95358.25;;;4.98;87.40
40245;BME280;25963;42.694;23.600;2023-11-19T09:08:27;95353.44;;;4.87;84.25
40245;BME280;25963;42.694;23.600;2023-11-19T09:10:53;95370.06;;;4.94;83.25
40245;BME280;25963;42.694;23.600;2023-11-19T09:13:18;95367.50;;;4.86;84.84
40245;BME280;25963;42.694;23.600;2023-11-19T09:15:44;95369.50;;;4.99;83.56
40245;BME280;25963;42.694;23.600;2023-11-19T09:18:09;95351.81;;;4.86;82.04
40245;BME280;25963;42.694;23.600;2023-11-19T09:20:35;95350.63;;;5.26;84.99
40245;BME280;25963;42.694;23.600;2023-11-19T09:23:04;95339.03;;;4.91;81.33
40245;BME280;25963;42.694;23.600;2023-11-19T09:25:30;95360.66;;;4.85;82.63
40245;BME280;25963;42.694;23.600;2023-11-19T09:27:56;95373.38;;;4.88;82.59
40245;BME280;25963;42.694;23.600;2023-11-19T09:30:21;95373.09;;;4.83;84.34
40245;BME280;25963;42.694;23.600;2023-11-19T09:32:47;95371.03;;;4.93;84.93
40245;BME280;25963;42.694;23.600;2023-11-19T09:35:13;95373.25;;;4.81;84.13
40245;BME280;25963;42.694;23.600;2023-11-19T09:37:40;95359.63;;;4.71;84.42
40245;BME280;25963;42.694;23.600;2023-11-19T09:40:07;95363.13;;;5.01;82.39
40245;BME280;25963;42.694;23.600;2023-11-19T09:42:42;95356.91;;;5.17;82.79
40245;BME280;25963;42.694;23.600;2023-11-19T09:45:13;95359.09;;;5.29;82.51
40245;BME280;25963;42.694;23.600;2023-11-19T09:47:43;95352.66;;;5.01;80.48
40245;BME280;25963;42.694;23.600;2023-11-19T09:50:19;95359.72;;;5.16;81.51
40245;BME280;25963;42.694;23.600;2023-11-19T09:52:46;95335.00;;;5.03;79.38
40245;BME280;25963;42.694;23.600;2023-11-19T09:55:12;95348.47;;;5.45;81.77
40245;BME280;25963;42.694;23.600;2023-11-19T09:57:40;95330.31;;;5.14;79.77
40245;BME280;25963;42.694;23.600;2023-11-19T10:00:09;95356.53;;;5.20;81.47
40245;BME280;25963;42.694;23.600;2023-11-19T10:02:36;95354.38;;;5.09;79.35
40245;BME280;25963;42.694;23.600;2023-11-19T10:05:06;95361.59;;;5.07;79.77
40245;BME280;25963;42.694;23.600;2023-11-19T10:07:35;95347.03;;;4.90;80.40
40245;BME280;25963;42.694;23.600;2023-11-19T10:10:01;95342.97;;;4.87;80.91
40245;BME280;25963;42.694;23.600;2023-11-19T10:12:28;95334.81;;;5.05;84.75
40245;BME280;25963;42.694;23.600;2023-11-19T10:14:56;95326.50;;;5.01;80.59
40245;BME280;25963;42.694;23.600;2023-11-19T10:17:27;95342.94;;;5.25;80.07
40245;BME280;25963;42.694;23.600;2023-11-19T10:19:54;95316.13;;;4.93;80.39
40245;BME280;25963;42.694;23.600;2023-11-19T10:22:20;95335.28;;;5.09;79.65
40245;BME280;25963;42.694;23.600;2023-11-19T10:24:45;95353.94;;;5.20;80.96
40245;BME280;25963;42.694;23.600;2023-11-19T10:27:10;95362.75;;;5.04;79.63
40245;BME280;25963;42.694;23.600;2023-11-19T10:29:39;95344.00;;;5.01;79.45
40245;BME280;25963;42.694;23.600;2023-11-19T10:32:04;95345.44;;;5.03;79.58
40245;BME280;25963;42.694;23.600;2023-11-19T10:34:30;95335.72;;;4.97;77.85
40245;BME280;25963;42.694;23.600;2023-11-19T10:36:55;95348.91;;;5.19;78.06
40245;BME280;25963;42.694;23.600;2023-11-19T10:39:21;95342.88;;;5.33;79.04
40245;BME280;25963;42.694;23.600;2023-11-19T10:41:49;95325.81;;;5.37;80.37
40245;BME280;25963;42.694;23.600;2023-11-19T10:44:34;95334.38;;;5.46;78.07
40245;BME280;25963;42.694;23.600;2023-11-19T10:47:01;95340.16;;;5.26;77.21
40245;BME280;25963;42.694;23.600;2023-11-19T10:49:26;95320.41;;;5.54;79.72
40245;BME280;25963;42.694;23.600;2023-11-19T10:51:53;95321.00;;;5.56;73.86
40245;BME280;25963;42.694;23.600;2023-11-19T10:54:22;95321.91;;;5.78;75.58
40245;BME280;25963;42.694;23.600;2023-11-19T10:56:51;95330.50;;;5.57;75.91
40245;BME280;25963;42.694;23.600;2023-11-19T10:59:21;95315.59;;;5.72;77.04
40245;BME280;25963;42.694;23.600;2023-11-19T11:01:48;95330.81;;;5.83;76.49
40245;BME280;25963;42.694;23.600;2023-11-19T11:04:21;95309.53;;;5.86;74.54
40245;BME280;25963;42.694;23.600;2023-11-19T11:06:48;95309.41;;;5.94;74.33
40245;BME280;25963;42.694;23.600;2023-11-19T11:09:14;95297.34;;;5.79;75.43
40245;BME280;25963;42.694;23.600;2023-11-19T11:11:40;95308.63;;;5.94;73.93
40245;BME280;25963;42.694;23.600;2023-11-19T11:14:12;95305.31;;;6.07;74.62
40245;BME280;25963;42.694;23.600;2023-11-19T11:16:42;95292.59;;;6.04;72.30
40245;BME280;25963;42.694;23.600;2023-11-19T11:19:10;95303.91;;;5.89;71.63
40245;BME280;25963;42.694;23.600;2023-11-19T11:21:37;95293.56;;;5.81;74.84
40245;BME280;25963;42.694;23.600;2023-11-19T11:27:22;95300.84;;;5.86;74.10
40245;BME280;25963;42.694;23.600;2023-11-19T11:32:53;95301.31;;;5.89;70.84
40245;BME280;25963;42.694;23.600;2023-11-19T11:38:04;95298.53;;;6.55;71.22
40245;BME280;25963;42.694;23.600;2023-11-19T11:40:29;95310.63;;;7.06;68.27
40245;BME280;25963;42.694;23.600;2023-11-19T11:42:56;95304.81;;;7.45;67.71
40245;BME280;25963;42.694;23.600;2023-11-19T11:45:40;95291.47;;;8.01;70.84
40245;BME280;25963;42.694;23.600;2023-11-19T11:50:48;95289.28;;;8.05;60.08
40245;BME280;25963;42.694;23.600;2023-11-19T11:53:21;95294.16;;;8.21;59.57
40245;BME280;25963;42.694;23.600;2023-11-19T11:58:31;95283.72;;;8.41;64.85
40245;BME280;25963;42.694;23.600;2023-11-19T12:00:58;95290.84;;;8.67;64.69
40245;BME280;25963;42.694;23.600;2023-11-19T12:03:27;95300.31;;;8.42;59.32
40245;BME280;25963;42.694;23.600;2023-11-19T12:05:53;95300.59;;;8.06;57.94
40245;BME280;25963;42.694;23.600;2023-11-19T12:08:20;95288.03;;;7.94;62.02
40245;BME280;25963;42.694;23.600;2023-11-19T12:10:50;95288.50;;;8.11;61.13
40245;BME280;25963;42.694;23.600;2023-11-19T12:13:17;95290.00;;;7.72;61.91
40245;BME280;25963;42.694;23.600;2023-11-19T12:18:23;95227.31;;;7.63;64.65
40245;BME280;25963;42.694;23.600;2023-11-19T12:20:49;95259.97;;;7.47;62.38
40245;BME280;25963;42.694;23.600;2023-11-19T12:23:15;95253.94;;;7.46;62.72
40245;BME280;25963;42.694;23.600;2023-11-19T12:25:41;95259.69;;;7.76;61.61
40245;BME280;25963;42.694;23.600;2023-11-19T12:28:12;95256.97;;;7.50;61.62
40245;BME280;25963;42.694;23.600;2023-11-19T12:30:38;95255.22;;;7.70;63.26
40245;BME280;25963;42.694;23.600;2023-11-19T12:33:12;95251.78;;;7.63;63.34
40245;BME280;25963;42.694;23.600;2023-11-19T12:35:44;95255.53;;;7.47;63.84
40245;BME280;25963;42.694;23.600;2023-11-19T12:38:24;95245.19;;;7.87;63.32
40245;BME280;25963;42.694;23.600;2023-11-19T12:41:03;95242.34;;;7.89;64.17
40245;BME280;25963;42.694;23.600;2023-11-19T12:43:29;95236.13;;;8.16;62.16
40245;BME280;25963;42.694;23.600;2023-11-19T12:46:01;95234.13;;;8.18;59.80
40245;BME280;25963;42.694;23.600;2023-11-19T12:48:27;95225.41;;;7.91;61.03
40245;BME280;25963;42.694;23.600;2023-11-19T12:50:58;95220.09;;;7.71;61.80
40245;BME280;25963;42.694;23.600;2023-11-19T12:53:28;95217.22;;;7.60;61.23
40245;BME280;25963;42.694;23.600;2023-11-19T12:55:54;95219.69;;;7.74;61.97
40245;BME280;25963;42.694;23.600;2023-11-19T12:58:41;95214.06;;;7.84;62.17
40245;BME280;25963;42.694;23.600;2023-11-19T13:01:08;95227.78;;;7.80;64.06
40245;BME280;25963;42.694;23.600;2023-11-19T13:03:44;95230.59;;;7.71;60.53
40245;BME280;25963;42.694;23.600;2023-11-19T13:06:11;95237.28;;;7.81;62.58
40245;BME280;25963;42.694;23.600;2023-11-19T13:08:42;95223.38;;;7.93;62.93
40245;BME280;25963;42.694;23.600;2023-11-19T13:11:12;95208.59;;;7.79;60.40